createdAt,value
2023-02-23T00:00:00.843Z,22.77
2023-02-23T00:03:05.107Z,22.10
2023-02-23T00:06:08.668Z,24.93
2023-02-23T00:09:22.602Z,22.47
2023-02-23T00:12:26.877Z,25.40
2023-02-23T00:15:29.872Z,26.83
2023-02-23T00:18:44.933Z,23.10
2023-02-23T00:21:47.572Z,23.13
2023-02-23T00:24:50.184Z,23.30
2023-02-23T00:27:54.781Z,21.90
2023-02-23T00:30:59.577Z,29.00
2023-02-23T00:34:04.768Z,28.97
2023-02-23T00:37:09.520Z,26.17
2023-02-23T00:40:14.628Z,26.37
2023-02-23T00:43:19.794Z,27.37
2023-02-23T00:46:23.983Z,28.23
2023-02-23T00:49:28.285Z,23.40
2023-02-23T00:52:30.872Z,24.37
2023-02-23T00:55:33.453Z,25.50
2023-02-23T00:58:36.422Z,28.43
2023-02-23T01:01:41.594Z,33.83
2023-02-23T01:04:45.652Z,27.57
2023-02-23T01:07:49.180Z,31.57
2023-02-23T01:10:55.092Z,34.37
2023-02-23T01:13:59.948Z,28.60
2023-02-23T01:17:02.529Z,31.27
2023-02-23T01:20:15.537Z,27.50
2023-02-23T01:23:20.872Z,28.00
2023-02-23T01:26:25.980Z,33.67
2023-02-23T01:29:28.596Z,25.07
2023-02-23T01:32:31.721Z,26.93
2023-02-23T01:35:36.194Z,26.50
2023-02-23T01:38:38.840Z,29.13
2023-02-23T01:41:43.251Z,25.27
2023-02-23T01:45:22.197Z,25.80
2023-02-23T01:48:27.912Z,27.00
2023-02-23T01:51:35.041Z,31.00
2023-02-23T01:54:41.838Z,29.67
2023-02-23T01:57:44.486Z,31.40
2023-02-23T02:00:51.387Z,27.87
2023-02-23T02:03:57.169Z,27.00
2023-02-23T02:07:03.723Z,27.67
2023-02-23T02:10:46.641Z,25.77
2023-02-23T02:13:49.300Z,31.70
2023-02-23T02:17:12.576Z,31.17
2023-02-23T02:20:52.504Z,31.63
2023-02-23T02:24:18.740Z,27.33
2023-02-23T02:27:43.410Z,27.77
2023-02-23T02:31:13.148Z,27.77
2023-02-23T02:34:36.844Z,29.30
2023-02-23T02:37:58.561Z,31.30
2023-02-23T02:41:07.549Z,29.07
2023-02-23T02:44:16.682Z,32.83
2023-02-23T02:47:26.622Z,30.40
2023-02-23T02:50:46.220Z,31.83
2023-02-23T02:53:56.496Z,28.00
2023-02-23T02:57:04.278Z,31.87
2023-02-23T03:00:26.331Z,29.27
2023-02-23T03:03:49.487Z,26.90
2023-02-23T03:07:17.161Z,28.57
2023-02-23T03:10:46.331Z,25.13
2023-02-23T03:14:17.101Z,31.13
2023-02-23T03:17:48.668Z,29.67
2023-02-23T03:21:12.526Z,28.63
2023-02-23T03:24:41.269Z,28.93
2023-02-23T03:28:08.376Z,30.40
2023-02-23T03:31:34.894Z,31.43
2023-02-23T03:35:01.608Z,29.20
2023-02-23T03:38:27.760Z,27.23
2023-02-23T03:41:49.964Z,32.10
2023-02-23T03:45:13.983Z,24.60
2023-02-23T03:48:38.734Z,25.70
2023-02-23T03:52:02.058Z,28.37
2023-02-23T03:55:28.457Z,31.70
2023-02-23T03:58:52.891Z,31.03
2023-02-23T04:02:16.062Z,29.47
2023-02-23T04:05:41.622Z,29.90
2023-02-23T04:09:01.952Z,30.37
2023-02-23T04:12:27.718Z,31.13
2023-02-23T04:15:33.624Z,30.57
2023-02-23T04:18:40.427Z,30.20
2023-02-23T04:21:43.015Z,33.03
2023-02-23T04:24:46.984Z,40.30
2023-02-23T04:27:49.803Z,34.33
2023-02-23T04:30:53.218Z,39.43
2023-02-23T04:33:57.581Z,36.70
2023-02-23T04:37:00.174Z,35.00
2023-02-23T04:40:02.823Z,40.37
2023-02-23T04:43:05.395Z,41.80
2023-02-23T04:46:08.359Z,39.17
2023-02-23T04:49:12.280Z,32.10
2023-02-23T04:52:14.858Z,37.67
2023-02-23T04:55:19.356Z,37.57
2023-02-23T04:58:21.936Z,39.10
2023-02-23T05:01:24.652Z,35.47
2023-02-23T05:04:28.789Z,38.23
2023-02-23T05:07:31.445Z,39.67
2023-02-23T05:10:34.051Z,44.20
2023-02-23T05:13:37.280Z,37.20
2023-02-23T05:16:39.948Z,43.03
2023-02-23T05:19:43.890Z,34.53
2023-02-23T05:22:46.491Z,40.33
2023-02-23T05:25:49.070Z,38.43
2023-02-23T05:28:51.679Z,43.90
2023-02-23T05:31:54.504Z,42.73
2023-02-23T05:34:58.509Z,44.43
2023-02-23T05:38:01.112Z,37.83
2023-02-23T05:41:06.339Z,42.40
2023-02-23T05:44:08.953Z,40.30
2023-02-23T05:47:11.787Z,39.47
2023-02-23T05:50:15.741Z,44.93
2023-02-23T05:53:18.348Z,40.40
2023-02-23T05:56:21.539Z,46.77
2023-02-23T05:59:24.153Z,38.20
2023-02-23T06:02:26.776Z,39.13
2023-02-23T06:05:31.288Z,48.33
2023-02-23T06:08:33.879Z,43.70
2023-02-23T06:11:36.475Z,42.97
2023-02-23T06:14:39.086Z,41.67
2023-02-23T06:17:41.655Z,39.70
2023-02-23T06:20:47.068Z,49.13
2023-02-23T06:23:49.714Z,43.77
2023-02-23T06:26:52.764Z,43.10
2023-02-23T06:29:55.349Z,47.90
2023-02-23T06:32:57.924Z,42.87
2023-02-23T06:36:01.862Z,47.57
2023-02-23T06:39:05.034Z,46.43
2023-02-23T06:42:07.612Z,41.40
2023-02-23T06:45:11.550Z,46.43
2023-02-23T06:48:14.248Z,48.23
2023-02-23T06:51:18.538Z,48.83
2023-02-23T06:54:21.266Z,50.83
2023-02-23T06:57:23.998Z,52.60
2023-02-23T07:00:26.892Z,48.23
2023-02-23T07:03:29.480Z,49.20
2023-02-23T07:06:33.461Z,46.70
2023-02-23T07:09:36.163Z,57.67
2023-02-23T07:12:38.787Z,54.53
2023-02-23T07:15:42.461Z,61.43
2023-02-23T07:18:45.158Z,49.97
2023-02-23T07:21:49.110Z,58.90
2023-02-23T07:24:51.728Z,51.97
2023-02-23T07:27:55.030Z,57.57
2023-02-23T07:30:57.882Z,55.83
2023-02-23T07:34:00.563Z,59.53
2023-02-23T07:37:04.509Z,58.17
2023-02-23T07:40:08.435Z,62.93
2023-02-23T07:43:11.055Z,68.73
2023-02-23T07:46:15.478Z,59.07
2023-02-23T07:49:18.212Z,64.37
2023-02-23T07:52:22.153Z,63.03
2023-02-23T07:55:24.836Z,66.90
2023-02-23T07:58:28.120Z,61.67
2023-02-23T08:01:30.876Z,61.27
2023-02-23T08:04:33.706Z,62.03
2023-02-23T08:07:37.758Z,63.77
2023-02-23T08:10:40.471Z,72.00
2023-02-23T08:13:43.585Z,72.73
2023-02-23T08:16:46.231Z,76.60
2023-02-23T08:19:49.857Z,65.27
2023-02-23T08:22:56.230Z,73.10
2023-02-23T08:25:59.535Z,72.83
2023-02-23T08:29:02.148Z,67.80
2023-02-23T08:32:05.211Z,61.37
2023-02-23T08:35:08.692Z,68.83
2023-02-23T08:38:12.684Z,68.53
2023-02-23T08:41:15.367Z,63.83
2023-02-23T08:44:17.939Z,60.87
2023-02-23T08:47:21.895Z,62.37
2023-02-23T08:50:27.276Z,65.73
2023-02-23T08:53:32.780Z,58.90
2023-02-23T08:56:35.364Z,65.53
2023-02-23T08:59:39.128Z,52.53
2023-02-23T09:02:42.113Z,54.70
2023-02-23T09:05:45.158Z,49.10
2023-02-23T09:08:49.688Z,50.40
2023-02-23T09:11:52.328Z,44.57
2023-02-23T09:14:54.913Z,44.67
2023-02-23T09:18:01.430Z,47.97
2023-02-23T09:21:07.463Z,41.57
2023-02-23T09:24:11.552Z,45.00
2023-02-23T09:27:14.695Z,43.10
2023-02-23T09:30:20.592Z,45.37
2023-02-23T09:33:23.503Z,44.17
2023-02-23T09:36:26.862Z,41.87
2023-02-23T09:39:38.171Z,47.23
2023-02-23T09:42:54.056Z,42.13
2023-02-23T09:46:03.492Z,42.60
2023-02-23T09:49:12.695Z,44.77
2023-02-23T09:52:20.787Z,39.33
2023-02-23T09:55:27.706Z,43.13
2023-02-23T09:58:32.434Z,42.67
2023-02-23T10:01:52.084Z,48.67
2023-02-23T10:05:00.141Z,44.27
2023-02-23T10:08:07.325Z,44.80
2023-02-23T10:11:19.113Z,42.43
2023-02-23T10:14:35.030Z,44.77
2023-02-23T10:17:43.642Z,46.47
2023-02-23T10:20:54.821Z,61.77
2023-02-23T10:24:02.781Z,56.80
2023-02-23T10:27:11.441Z,67.50
2023-02-23T10:30:20.617Z,76.47
2023-02-23T10:33:30.114Z,81.03
2023-02-23T10:36:37.139Z,86.07
2023-02-23T10:39:42.964Z,95.10
2023-02-23T10:42:46.929Z,101.87
2023-02-23T10:45:51.447Z,102.87
2023-02-23T10:48:57.003Z,93.27
2023-02-23T10:52:02.880Z,108.27
2023-02-23T10:55:07.532Z,112.87
2023-02-23T10:58:18.293Z,113.47
2023-02-23T11:01:36.306Z,112.93
2023-02-23T11:04:39.265Z,116.10
2023-02-23T11:07:43.239Z,115.53
2023-02-23T11:10:57.069Z,110.60
2023-02-23T11:14:16.732Z,113.67
2023-02-23T11:17:28.060Z,119.07
2023-02-23T11:20:35.985Z,117.50
2023-02-23T11:23:41.143Z,108.57
2023-02-23T11:26:45.143Z,110.10
2023-02-23T11:29:53.272Z,123.13
2023-02-23T11:32:58.521Z,113.97
2023-02-23T11:36:13.530Z,126.20
2023-02-23T11:39:22.782Z,115.17
2023-02-23T11:42:27.248Z,128.43
2023-02-23T11:45:34.972Z,126.37
2023-02-23T11:48:45.259Z,124.93
2023-02-23T11:51:50.052Z,123.43
2023-02-23T11:54:57.277Z,136.43
2023-02-23T11:58:23.421Z,132.53
2023-02-23T12:01:41.656Z,134.57
2023-02-23T12:04:47.526Z,124.90
2023-02-23T12:07:58.263Z,117.77
2023-02-23T12:11:05.265Z,111.03
2023-02-23T12:14:13.504Z,111.00
2023-02-23T12:17:22.988Z,115.97
2023-02-23T12:20:29.710Z,117.87
2023-02-23T12:23:37.911Z,108.57
2023-02-23T12:26:48.875Z,104.47
2023-02-23T12:30:02.946Z,107.50
2023-02-23T12:33:12.817Z,102.10
2023-02-23T12:36:26.197Z,93.67
2023-02-23T12:39:32.791Z,103.47
2023-02-23T12:42:42.798Z,100.57
2023-02-23T12:45:50.650Z,103.47
2023-02-23T12:49:03.988Z,101.47
2023-02-23T12:52:14.622Z,97.67
2023-02-23T12:55:22.789Z,96.73
2023-02-23T12:58:34.493Z,100.57
2023-02-23T13:01:43.288Z,96.97
2023-02-23T13:05:15.424Z,100.93
2023-02-23T13:08:30.175Z,96.77
2023-02-23T13:12:06.227Z,96.53
2023-02-23T13:15:30.992Z,103.50
2023-02-23T13:18:38.567Z,86.50
2023-02-23T13:21:47.247Z,90.97
2023-02-23T13:24:52.341Z,82.97
2023-02-23T13:28:00.750Z,81.00
2023-02-23T13:31:05.798Z,83.93
2023-02-23T13:34:13.713Z,94.23
2023-02-23T13:37:22.533Z,86.30
2023-02-23T13:40:32.413Z,82.17
2023-02-23T13:43:41.540Z,87.57
2023-02-23T13:46:50.022Z,83.20
2023-02-23T13:49:59.230Z,86.43
2023-02-23T13:53:07.752Z,80.60
2023-02-23T13:56:16.161Z,79.13
2023-02-23T13:59:21.746Z,84.13
2023-02-23T14:02:35.191Z,77.23
2023-02-23T14:05:44.456Z,78.17
2023-02-23T14:08:53.298Z,76.50
2023-02-23T14:12:03.151Z,70.83
2023-02-23T14:15:41.607Z,85.50
2023-02-23T14:18:57.902Z,77.73
2023-02-23T14:22:05.323Z,78.43
2023-02-23T14:25:47.319Z,72.50
2023-02-23T14:29:40.040Z,65.83
2023-02-23T14:32:44.131Z,71.87
2023-02-23T14:35:49.191Z,66.93
2023-02-23T14:39:00.197Z,66.87
2023-02-23T14:42:07.692Z,63.17
2023-02-23T14:45:20.529Z,68.07
2023-02-23T14:48:23.460Z,56.93
2023-02-23T14:51:35.065Z,65.93
2023-02-23T14:54:39.933Z,54.97
2023-02-23T14:57:44.928Z,53.83
2023-02-23T15:00:48.937Z,52.23
2023-02-23T15:04:06.308Z,46.67
2023-02-23T15:07:18.511Z,44.50
2023-02-23T15:10:25.943Z,43.20
2023-02-23T15:13:32.835Z,38.37
2023-02-23T15:16:37.690Z,34.43
2023-02-23T15:19:40.311Z,31.27
2023-02-23T15:22:43.020Z,34.97
2023-02-23T15:25:48.170Z,34.63
2023-02-23T15:28:52.202Z,39.07
2023-02-23T15:31:57.952Z,28.57
2023-02-23T15:35:03.625Z,30.87
2023-02-23T15:38:17.974Z,27.97
2023-02-23T15:41:32.331Z,30.30
2023-02-23T15:44:44.023Z,28.30
2023-02-23T15:47:47.717Z,29.57
2023-02-23T15:50:54.035Z,34.87
2023-02-23T15:53:56.804Z,27.00
2023-02-23T15:57:07.907Z,34.73
2023-02-23T16:00:32.608Z,30.87
2023-02-23T16:03:37.919Z,35.10
2023-02-23T16:06:50.646Z,35.67
2023-02-23T16:09:55.132Z,36.70
2023-02-23T16:12:57.753Z,38.97
2023-02-23T16:16:01.879Z,34.93
2023-02-23T16:19:05.109Z,35.90
2023-02-23T16:22:12.155Z,42.73
2023-02-23T16:25:17.388Z,36.57
2023-02-23T16:28:22.961Z,35.90
2023-02-23T16:31:43.612Z,42.03
2023-02-23T16:34:50.763Z,38.23
2023-02-23T16:38:02.086Z,43.60
2023-02-23T16:41:05.534Z,45.53
2023-02-23T16:44:13.282Z,39.67
2023-02-23T16:47:37.295Z,43.53
2023-02-23T16:50:40.607Z,49.27
2023-02-23T16:53:43.337Z,43.50
2023-02-23T16:56:47.784Z,46.63
2023-02-23T16:59:51.599Z,39.17
2023-02-23T17:02:57.233Z,41.10
2023-02-23T17:06:01.790Z,38.10
2023-02-23T17:09:05.361Z,33.40
2023-02-23T17:12:08.298Z,34.30
2023-02-23T17:15:18.085Z,39.37
2023-02-23T17:21:28.377Z,42.70
2023-02-23T17:24:30.942Z,44.17
2023-02-23T17:27:33.543Z,37.87
2023-02-23T17:30:37.959Z,51.70
2023-02-23T17:33:43.002Z,38.47
2023-02-23T17:36:45.580Z,80.53
2023-02-23T17:39:49.559Z,28.33
2023-02-23T17:42:52.133Z,27.63
2023-02-23T17:45:55.924Z,23.63
2023-02-23T17:48:59.853Z,24.13
2023-02-23T17:52:02.958Z,26.07
2023-02-23T17:55:06.137Z,26.10
2023-02-23T17:58:08.910Z,46.80
2023-02-23T18:01:11.520Z,35.60
2023-02-23T18:04:15.884Z,49.73
2023-02-23T18:07:18.788Z,26.00
2023-02-23T18:10:25.181Z,25.13
2023-02-23T18:13:28.677Z,30.63
2023-02-23T18:16:31.327Z,22.33
2023-02-23T18:19:35.593Z,16.00
2023-02-23T18:22:38.170Z,29.10
2023-02-23T18:25:40.788Z,27.93
2023-02-23T18:28:44.467Z,29.83
2023-02-23T18:31:48.154Z,31.23
2023-02-23T18:34:52.237Z,22.17
2023-02-23T18:37:55.482Z,22.80
2023-02-23T18:40:58.639Z,31.47
2023-02-23T18:44:03.228Z,32.80
2023-02-23T18:47:05.905Z,26.83
2023-02-23T18:50:12.702Z,24.63
2023-02-23T18:53:15.322Z,26.77
2023-02-23T18:56:22.712Z,29.20
2023-02-23T18:59:25.323Z,27.10
2023-02-23T19:02:28.663Z,21.37
2023-02-23T19:05:33.061Z,28.33
2023-02-23T19:08:35.828Z,29.60
2023-02-23T19:11:38.748Z,24.67
2023-02-23T19:14:49.548Z,16.97
2023-02-23T19:17:54.299Z,16.03
2023-02-23T19:20:58.557Z,20.60
2023-02-23T19:24:02.756Z,20.30
2023-02-23T19:27:05.456Z,29.60
2023-02-23T19:30:10.314Z,22.37
2023-02-23T19:33:14.242Z,24.57
2023-02-23T19:36:20.612Z,15.60
2023-02-23T19:39:23.210Z,19.63
2023-02-23T19:42:25.805Z,24.40
2023-02-23T19:45:28.460Z,17.10
2023-02-23T19:48:31.075Z,24.37
2023-02-23T19:51:35.216Z,23.90
2023-02-23T19:54:37.867Z,17.63
2023-02-23T19:57:40.571Z,23.33
2023-02-23T20:00:43.177Z,18.80
2023-02-23T20:03:49.389Z,24.13
2023-02-23T20:06:53.352Z,16.57
2023-02-23T20:09:56.467Z,21.50
2023-02-23T20:12:59.022Z,25.53
2023-02-23T20:16:03.626Z,33.43
2023-02-23T20:19:07.544Z,18.13
2023-02-23T20:22:11.527Z,23.53
2023-02-23T20:25:15.711Z,20.47
2023-02-23T20:28:18.747Z,32.03
2023-02-23T20:31:25.640Z,14.77
2023-02-23T20:34:29.549Z,24.63
2023-02-23T20:37:33.923Z,19.33
2023-02-23T20:40:36.864Z,21.70
2023-02-23T20:43:40.381Z,16.80
2023-02-23T20:46:45.009Z,18.53
2023-02-23T20:49:47.640Z,18.10
2023-02-23T20:52:51.760Z,19.63
2023-02-23T20:55:55.104Z,17.83
2023-02-23T20:58:57.678Z,17.87
2023-02-23T21:02:04.168Z,17.40
2023-02-23T21:05:10.153Z,18.53
2023-02-23T21:08:14.428Z,19.60
2023-02-23T21:11:18.086Z,19.07
2023-02-23T21:14:21.460Z,20.13
2023-02-23T21:17:24.079Z,18.10
2023-02-23T21:20:27.465Z,19.13
2023-02-23T21:23:31.389Z,14.63
2023-02-23T21:26:34.129Z,16.43
2023-02-23T21:29:36.787Z,16.97
2023-02-23T21:32:42.054Z,21.93
2023-02-23T21:35:44.852Z,17.80
2023-02-23T21:38:48.813Z,21.00
2023-02-23T21:41:51.432Z,18.67
2023-02-23T21:44:54.246Z,10.20
2023-02-23T21:47:56.858Z,15.60
2023-02-23T21:51:03.812Z,22.73
2023-02-23T21:54:07.828Z,23.07
2023-02-23T21:57:10.975Z,16.87
2023-02-23T22:00:16.069Z,13.07
2023-02-23T22:03:18.764Z,15.83
2023-02-23T22:06:23.564Z,20.00
2023-02-23T22:09:27.540Z,12.07
2023-02-23T22:12:32.545Z,16.57
2023-02-23T22:15:35.515Z,14.23
2023-02-23T22:18:38.286Z,17.67
2023-02-23T22:21:42.693Z,11.50
2023-02-23T22:24:48.653Z,18.70
2023-02-23T22:27:51.372Z,14.33
2023-02-23T22:30:55.305Z,12.27
2023-02-23T22:33:58.044Z,13.13
2023-02-23T22:37:00.728Z,16.70
2023-02-23T22:40:13.097Z,12.03
2023-02-23T22:43:16.258Z,7.03
2023-02-23T22:46:19.019Z,14.83
2023-02-23T22:49:21.623Z,11.60
2023-02-23T22:52:24.332Z,12.57
2023-02-23T22:55:29.220Z,12.00
2023-02-23T22:58:32.698Z,15.17
2023-02-23T23:01:38.331Z,10.77
2023-02-23T23:04:41.171Z,7.33
2023-02-23T23:07:46.431Z,6.80
2023-02-23T23:10:50.978Z,8.00
2023-02-23T23:14:00.376Z,10.83
2023-02-23T23:17:03.051Z,10.17
2023-02-23T23:20:11.799Z,8.27
2023-02-23T23:23:14.877Z,8.20
2023-02-23T23:26:20.713Z,14.27
2023-02-23T23:29:25.543Z,8.37
2023-02-23T23:32:29.764Z,7.87
2023-02-23T23:35:34.274Z,5.83
2023-02-23T23:38:38.501Z,9.37
2023-02-23T23:41:43.893Z,9.63
2023-02-23T23:44:46.466Z,7.23
2023-02-23T23:47:49.054Z,10.33
2023-02-23T23:50:51.620Z,10.07
2023-02-23T23:53:54.224Z,6.93
2023-02-23T23:57:01.235Z,8.03
